Time;durP1;ratioP1;P1;durP2;ratioP2;P2;SDS_P1;SDS_P2;PMS_P1;PMS_P2;Temp;Humidity;BMP_temperature;BMP_pressure;BME280_temperature;BME280_humidity;BME280_pressure;Samples;Min_cycle;Max_cycle;Signal;HPM_P1;HPM_P2
2021/01/14 00:03:29;;;;;;;17.82;7.92;;;;;;;-0.08;100.00;97841.94;4353921;80;43935;-77
2021/01/14 00:09:33;;;;;;;18.70;8.50;;;;;;;-0.03;100.00;97840.85;4338465;80;43971;-74
2021/01/14 00:15:36;;;;;;;17.65;7.83;;;;;;;0.05;100.00;97839.39;4346840;81;43915;-74
2021/01/14 00:21:43;;;;;;;15.35;7.30;;;;;;;-0.12;100.00;97830.94;4380416;80;28679;-74
2021/01/14 00:27:46;;;;;;;17.02;8.30;;;;;;;-0.06;100.00;97814.30;4393296;80;43903;-74
2021/01/14 00:33:48;;;;;;;14.23;7.47;;;;;;;-0.06;100.00;97816.14;4386088;80;43961;-77
2021/01/14 00:39:50;;;;;;;16.57;8.03;;;;;;;0.14;100.00;97816.26;4369909;80;43902;-76
2021/01/14 00:45:52;;;;;;;15.55;7.92;;;;;;;0.07;100.00;97806.97;4371364;80;43926;-76
2021/01/14 00:51:54;;;;;;;14.68;7.05;;;;;;;0.00;100.00;97800.84;4334002;80;43975;-76
2021/01/14 00:57:56;;;;;;;13.38;6.75;;;;;;;0.01;100.00;97801.16;4351757;80;43935;-78
2021/01/14 01:03:59;;;;;;;16.10;7.35;;;;;;;-0.02;100.00;97797.06;4334499;80;44004;-77
2021/01/14 01:10:04;;;;;;;16.12;7.50;;;;;;;-0.10;100.00;97789.28;4340716;81;28546;-77
2021/01/14 01:16:06;;;;;;;13.05;6.72;;;;;;;-0.25;100.00;97788.58;4330488;81;43904;-75
2021/01/14 01:22:08;;;;;;;12.95;6.45;;;;;;;-0.21;100.00;97781.89;4345455;81;43921;-75
2021/01/14 01:28:10;;;;;;;9.83;5.95;;;;;;;-0.34;100.00;97776.83;4340188;80;42713;-75
2021/01/14 01:34:12;;;;;;;12.43;5.97;;;;;;;-0.21;100.00;97766.04;4337501;80;43248;-75
2021/01/14 01:40:15;;;;;;;11.95;5.55;;;;;;;-0.23;100.00;97753.53;4335286;80;43245;-75
2021/01/14 01:46:27;;;;;;;11.15;5.55;;;;;;;-0.38;100.00;97753.11;4348605;80;43245;-75
2021/01/14 01:52:33;;;;;;;11.08;5.85;;;;;;;-0.53;100.00;97750.56;4394820;80;43302;-75
2021/01/14 01:58:40;;;;;;;10.23;5.58;;;;;;;-0.53;100.00;97743.16;4400986;80;43244;-75
2021/01/14 02:04:42;;;;;;;10.55;5.70;;;;;;;-0.45;100.00;97752.27;4386276;80;43240;-74
2021/01/14 02:10:57;;;;;;;10.13;5.22;;;;;;;-0.57;100.00;97754.11;4337356;81;43321;-76
2021/01/14 02:16:59;;;;;;;12.50;5.80;;;;;;;-0.59;100.00;97758.73;4344419;81;28575;-76
2021/01/14 02:23:20;;;;;;;11.28;6.05;;;;;;;-0.53;100.00;97750.56;4391624;80;43247;-75
2021/01/14 02:29:22;;;;;;;10.88;5.70;;;;;;;-0.57;100.00;97750.16;4361147;80;43248;-75
2021/01/14 02:35:24;;;;;;;10.00;5.03;;;;;;;-0.39;100.00;97738.80;4384711;80;28556;-75
2021/01/14 02:41:26;;;;;;;14.45;5.83;;;;;;;-0.42;100.00;97745.27;4352552;81;28576;-75
2021/01/14 02:47:30;;;;;;;11.33;5.97;;;;;;;-0.37;100.00;97732.29;4323971;81;43237;-74
2021/01/14 02:53:34;;;;;;;11.48;5.65;;;;;;;-0.41;100.00;97736.34;4366075;81;28575;-75
2021/01/14 02:59:36;;;;;;;10.80;5.08;;;;;;;-0.29;100.00;97733.47;4343406;80;28658;-76
2021/01/14 03:05:38;;;;;;;8.83;5.03;;;;;;;-0.09;100.00;97734.63;4368466;80;28627;-75
2021/01/14 03:11:40;;;;;;;7.87;4.80;;;;;;;-0.21;100.00;97737.81;4353162;81;42712;-77
2021/01/14 03:17:42;;;;;;;9.90;5.30;;;;;;;-0.37;100.00;97729.65;4359017;80;28590;-74
2021/01/14 03:23:44;;;;;;;10.08;5.25;;;;;;;-0.20;100.00;97732.83;4365473;80;43031;-75
2021/01/14 03:29:46;;;;;;;9.20;4.85;;;;;;;-0.16;100.00;97727.46;4368559;81;42693;-77
2021/01/14 03:35:48;;;;;;;9.63;5.28;;;;;;;-0.12;100.00;97723.93;4361841;80;43043;-77
2021/01/14 03:41:52;;;;;;;8.68;5.47;;;;;;;-0.08;100.00;97715.91;4371554;81;42708;-77
2021/01/14 03:47:54;;;;;;;8.58;5.20;;;;;;;0.05;100.00;97703.77;4383268;81;42688;-74
2021/01/14 03:53:56;;;;;;;9.28;5.30;;;;;;;0.05;100.00;97711.21;4324004;81;42693;-76
2021/01/14 03:59:58;;;;;;;12.55;5.65;;;;;;;-0.17;100.00;97713.94;4293928;82;43549;-77
2021/01/14 04:06:00;;;;;;;9.70;5.15;;;;;;;-0.30;100.00;97714.67;4317009;81;42752;-77
2021/01/14 04:12:03;;;;;;;12.88;5.85;;;;;;;-0.10;100.00;97717.94;4319794;82;43225;-77
2021/01/14 04:18:06;;;;;;;8.98;5.10;;;;;;;-0.19;100.00;97713.33;4408336;80;28635;-78
2021/01/14 04:24:09;;;;;;;8.73;5.83;;;;;;;-0.14;100.00;97715.39;4398518;80;42699;-75
2021/01/14 04:30:12;;;;;;;8.65;5.12;;;;;;;-0.11;100.00;97716.80;4397988;80;42687;-75
2021/01/14 04:36:16;;;;;;;8.48;5.20;;;;;;;-0.21;100.00;97721.13;4399256;80;28597;-75
2021/01/14 04:42:20;;;;;;;8.03;4.78;;;;;;;-0.34;100.00;97721.85;4437477;80;42758;-76
2021/01/14 04:48:24;;;;;;;9.43;5.25;;;;;;;-0.18;100.00;97721.56;4393125;80;42691;-75
2021/01/14 04:54:34;;;;;;;7.10;4.90;;;;;;;-0.18;100.00;97719.41;4388931;80;28580;-75
2021/01/14 05:00:39;;;;;;;7.42;4.83;;;;;;;-0.10;100.00;97726.39;4384640;80;42717;-75
2021/01/14 05:06:43;;;;;;;8.60;5.22;;;;;;;-0.21;100.00;97721.95;4374358;80;42746;-75
2021/01/14 05:12:49;;;;;;;9.88;6.17;;;;;;;-0.07;100.00;97716.74;4351957;80;42963;-76
2021/01/14 05:18:51;;;;;;;9.50;5.28;;;;;;;-0.12;100.00;97717.81;4384018;80;42703;-76
2021/01/14 05:25:11;;;;;;;9.80;5.50;;;;;;;-0.03;100.00;97719.30;4390306;80;42692;-73
2021/01/14 05:31:17;;;;;;;8.95;5.40;;;;;;;0.02;100.00;97722.67;4361476;81;42692;-76
2021/01/14 05:37:19;;;;;;;8.20;5.22;;;;;;;-0.02;100.00;97723.56;4362572;80;28641;-75
2021/01/14 05:43:21;;;;;;;9.45;5.58;;;;;;;-0.06;100.00;97727.62;4325852;81;28617;-75
2021/01/14 05:49:23;;;;;;;10.08;5.72;;;;;;;0.06;100.00;97731.86;4333916;80;43260;-76
2021/01/14 05:55:30;;;;;;;9.73;5.95;;;;;;;-0.05;100.00;97743.78;4394122;81;28584;-74
2021/01/14 06:01:33;;;;;;;9.35;5.58;;;;;;;0.06;100.00;97746.40;4385509;80;42689;-75
2021/01/14 06:07:41;;;;;;;10.93;6.20;;;;;;;-0.21;100.00;97754.98;4383091;79;43211;-76
2021/01/14 06:13:43;;;;;;;10.70;6.45;;;;;;;-0.19;100.00;97760.05;4370420;79;43208;-74
2021/01/14 06:19:45;;;;;;;10.30;5.85;;;;;;;-0.07;100.00;97757.17;4394592;80;28669;-74
2021/01/14 06:25:52;;;;;;;10.43;6.10;;;;;;;0.06;100.00;97759.61;4340380;80;28543;-73
2021/01/14 06:32:19;;;;;;;11.00;5.92;;;;;;;0.17;100.00;97772.28;4378833;80;28542;-75
2021/01/14 06:38:26;;;;;;;10.50;6.47;;;;;;;0.13;100.00;97782.91;4296835;81;43317;-75
2021/01/14 06:44:32;;;;;;;12.13;7.12;;;;;;;0.07;100.00;97789.79;4412174;79;28624;-76
2021/01/14 06:50:36;;;;;;;;;;;;;;;-0.13;100.00;97789.67;4354410;80;28622;-77
2021/01/14 06:57:00;;;;;;;13.98;7.78;;;;;;;-0.12;100.00;97805.84;4330163;81;44270;-78
2021/01/14 07:03:16;;;;;;;13.93;7.90;;;;;;;0.07;100.00;97810.13;4344952;81;43907;-78
2021/01/14 07:09:20;;;;;;;14.10;8.38;;;;;;;0.07;100.00;97815.42;4345412;80;43988;-78
2021/01/14 07:15:25;;;;;;;14.93;8.55;;;;;;;0.13;100.00;97833.12;4353930;81;43906;-78
2021/01/14 07:21:43;;;;;;;15.10;8.57;;;;;;;0.02;100.00;97842.42;4369668;80;28571;-78
2021/01/14 07:27:48;;;;;;;15.95;9.65;;;;;;;0.18;100.00;97847.09;4246740;81;43925;-78
2021/01/14 07:33:51;;;;;;;12.30;7.50;;;;;;;0.30;100.00;97857.95;4378799;80;28571;-78
2021/01/14 07:39:58;;;;;;;18.17;9.80;;;;;;;0.30;100.00;97866.69;4369935;81;44179;-78
2021/01/14 07:46:25;;;;;;;16.93;8.98;;;;;;;0.29;100.00;97876.95;4363610;81;43942;-78
2021/01/14 07:52:35;;;;;;;15.72;9.20;;;;;;;0.40;100.00;97880.91;4397342;80;28610;-77
2021/01/14 07:58:42;;;;;;;14.43;8.65;;;;;;;0.49;100.00;97889.00;4397461;80;28608;-77
2021/01/14 08:04:50;;;;;;;17.65;8.75;;;;;;;0.49;100.00;97896.94;4374069;80;43936;-78
2021/01/14 08:11:13;;;;;;;16.37;8.78;;;;;;;0.58;100.00;97908.17;4369272;80;28531;-77
2021/01/14 08:17:25;;;;;;;19.95;9.50;;;;;;;0.53;100.00;97917.20;4360768;80;28589;-76
2021/01/14 08:23:27;;;;;;;16.17;8.75;;;;;;;0.65;100.00;97932.84;4385673;80;43942;-76
2021/01/14 08:29:32;;;;;;;15.90;8.10;;;;;;;0.85;100.00;97933.95;4282307;81;43975;-77
2021/01/14 08:35:38;;;;;;;16.93;9.58;;;;;;;1.00;100.00;97950.55;4300303;81;28965;-76
2021/01/14 08:41:41;;;;;;;22.42;10.50;;;;;;;1.01;100.00;97964.09;4346492;80;28634;-76
2021/01/14 08:48:00;;;;;;;17.40;8.43;;;;;;;1.10;100.00;97965.56;4386146;80;28569;-76
2021/01/14 08:54:06;;;;;;;17.62;9.58;;;;;;;1.17;100.00;97970.05;4292155;81;28643;-75
2021/01/14 09:00:10;;;;;;;17.60;8.48;;;;;;;0.96;100.00;97983.69;4290550;81;43908;-76
2021/01/14 09:06:14;;;;;;;15.95;9.45;;;;;;;1.16;100.00;97993.58;4281533;82;28638;-77
2021/01/14 09:12:20;;;;;;;19.95;9.43;;;;;;;1.29;100.00;98006.08;4381085;80;43929;-79
2021/01/14 09:18:40;;;;;;;18.17;9.95;;;;;;;1.35;100.00;98009.24;4372044;80;28621;-77
2021/01/14 09:24:46;;;;;;;20.35;9.78;;;;;;;1.52;100.00;98019.02;4327226;82;43946;-77
2021/01/14 09:30:58;;;;;;;15.98;8.85;;;;;;;1.50;100.00;98031.12;4294940;81;28607;-76
2021/01/14 09:37:02;;;;;;;16.45;8.73;;;;;;;1.52;100.00;98040.22;4287291;82;28702;-74
2021/01/14 09:43:04;;;;;;;15.30;7.22;;;;;;;1.61;100.00;98039.53;4297235;81;29106;-74
2021/01/14 09:49:11;;;;;;;15.18;7.70;;;;;;;1.58;100.00;98061.12;4301094;81;43943;-76
2021/01/14 09:55:14;;;;;;;13.40;7.15;;;;;;;1.74;100.00;98054.15;4287141;81;28548;-76
2021/01/14 10:01:19;;;;;;;13.03;7.25;;;;;;;1.84;100.00;98065.72;4373058;80;28599;-74
2021/01/14 10:07:22;;;;;;;12.40;6.83;;;;;;;1.81;100.00;98065.60;4372816;80;28535;-75
2021/01/14 10:13:24;;;;;;;10.05;5.92;;;;;;;1.95;100.00;98066.47;4408850;80;28651;-77
2021/01/14 10:19:26;;;;;;;13.80;6.28;;;;;;;2.20;100.00;98074.39;4363457;81;28555;-79
2021/01/14 10:25:28;;;;;;;12.58;5.78;;;;;;;2.03;100.00;98082.70;4370113;81;28550;-80
2021/01/14 10:31:34;;;;;;;9.30;5.65;;;;;;;1.95;100.00;98090.33;4370335;81;28587;-78
2021/01/14 10:37:36;;;;;;;14.58;5.97;;;;;;;1.71;100.00;98090.83;4355654;81;28555;-78
2021/01/14 10:43:39;;;;;;;12.60;6.05;;;;;;;1.71;100.00;98097.45;4369681;81;28602;-78
2021/01/14 10:49:43;;;;;;;15.38;6.58;;;;;;;2.05;100.00;98107.70;4369804;81;28551;-78
2021/01/14 10:55:45;;;;;;;12.60;7.20;;;;;;;1.84;100.00;98116.58;4347045;81;28548;-78
2021/01/14 11:02:04;;;;;;;14.70;7.30;;;;;;;1.89;100.00;98125.57;4361905;81;28595;-78
2021/01/14 11:08:09;;;;;;;14.83;7.30;;;;;;;1.64;100.00;98121.27;4326477;80;28631;-79
2021/01/14 11:14:18;;;;;;;13.93;7.30;;;;;;;1.44;100.00;98135.73;4361289;80;28607;-78
2021/01/14 11:20:20;;;;;;;12.47;7.45;;;;;;;1.53;100.00;98133.25;4360399;81;28611;-79
2021/01/14 11:26:25;;;;;;;13.05;6.53;;;;;;;1.55;100.00;98133.87;4360828;81;28571;-81
2021/01/14 11:32:32;;;;;;;14.80;8.45;;;;;;;1.45;100.00;98134.20;4367293;81;28615;-82
2021/01/14 11:38:35;;;;;;;13.53;7.30;;;;;;;1.36;100.00;98145.46;4360302;80;28622;-81
2021/01/14 11:44:37;;;;;;;15.03;7.87;;;;;;;1.33;100.00;98145.02;4366022;81;28640;-80
2021/01/14 11:50:40;;;;;;;13.93;7.15;;;;;;;1.15;100.00;98158.26;4370795;80;28638;-83
2021/01/14 11:56:43;;;;;;;14.05;8.48;;;;;;;1.23;100.00;98162.59;4368924;80;28590;-82
2021/01/14 12:02:45;;;;;;;15.95;7.47;;;;;;;0.89;100.00;98168.92;4391692;80;28638;-83
2021/01/14 12:08:47;;;;;;;13.40;7.05;;;;;;;0.89;100.00;98180.03;4395416;81;28563;-79
2021/01/14 12:14:51;;;;;;;13.70;7.65;;;;;;;0.77;100.00;98190.29;4389173;80;28581;-79
2021/01/14 12:20:53;;;;;;;18.52;8.55;;;;;;;0.79;100.00;98197.04;4387065;80;28573;-80
2021/01/14 12:26:55;;;;;;;17.30;8.30;;;;;;;0.64;100.00;98205.52;4305037;81;28539;-79
2021/01/14 12:32:58;;;;;;;22.42;11.03;;;;;;;0.37;100.00;98225.87;4396915;80;44494;-79
2021/01/14 12:39:01;;;;;;;15.50;8.18;;;;;;;0.18;100.00;98239.66;4393086;80;28561;-80
2021/01/14 12:45:05;;;;;;;19.00;9.85;;;;;;;0.34;100.00;98246.09;4393983;79;43965;-80
2021/01/14 12:51:09;;;;;;;19.37;8.80;;;;;;;0.50;100.00;98264.06;4376518;80;28685;-78
2021/01/14 12:57:11;;;;;;;19.90;9.68;;;;;;;0.61;100.00;98274.16;4366488;80;28547;-78
2021/01/14 13:03:13;;;;;;;18.27;9.15;;;;;;;0.67;100.00;98280.54;4384999;79;28576;-81
2021/01/14 13:09:15;;;;;;;19.62;9.20;;;;;;;0.85;100.00;98284.61;4367791;80;28614;-82
2021/01/14 13:15:21;;;;;;;20.48;10.70;;;;;;;0.48;100.00;98299.14;4388530;80;44461;-80
2021/01/14 13:21:46;;;;;;;23.40;11.63;;;;;;;0.33;100.00;98309.23;4366779;80;43738;-82
2021/01/14 13:27:48;;;;;;;19.30;8.78;;;;;;;0.47;100.00;98325.27;4361418;80;28544;-82
2021/01/14 13:33:50;;;;;;;17.82;9.28;;;;;;;0.20;100.00;98334.15;4366081;80;28545;-81
2021/01/14 13:39:52;;;;;;;15.58;7.80;;;;;;;0.33;100.00;98346.26;4370812;80;28555;-79
2021/01/14 13:45:59;;;;;;;16.05;7.87;;;;;;;0.15;100.00;98368.25;4378493;80;43924;-80
2021/01/14 13:52:02;;;;;;;17.10;7.15;;;;;;;0.16;100.00;98368.57;4401161;79;43922;-82
2021/01/14 13:58:11;;;;;;;14.00;7.10;;;;;;;0.19;100.00;98384.90;4369053;80;28617;-82
2021/01/14 14:04:09;;;;;;;13.75;6.50;;;;;;;0.22;100.00;98390.34;4390935;80;43957;-81
2021/01/14 14:10:12;;;;;;;16.10;7.58;;;;;;;0.05;100.00;98405.50;4378345;80;28545;-79
2021/01/14 14:16:15;;;;;;;16.07;7.50;;;;;;;0.12;100.00;98413.05;4366904;80;43959;-80
2021/01/14 14:22:17;;;;;;;13.68;6.60;;;;;;;0.36;100.00;98428.36;4384692;80;43926;-80
2021/01/14 14:28:20;;;;;;;11.12;5.78;;;;;;;0.12;100.00;98439.48;4372349;80;43232;-80
2021/01/14 14:34:22;;;;;;;15.13;6.45;;;;;;;-0.05;100.00;98446.23;4384314;80;28558;-74
2021/01/14 14:40:24;;;;;;;14.43;6.53;;;;;;;0.09;100.00;98454.39;4374386;80;43922;-75
2021/01/14 14:46:27;;;;;;;14.05;6.95;;;;;;;0.10;100.00;98467.92;4397809;80;43942;-76
2021/01/14 14:52:30;;;;;;;17.37;7.37;;;;;;;0.08;100.00;98463.32;4365519;80;43965;-75
2021/01/14 14:58:32;;;;;;;17.52;8.48;;;;;;;0.09;100.00;98479.50;4367101;80;43955;-76
2021/01/14 15:04:36;;;;;;;14.28;7.28;;;;;;;-0.04;100.00;98487.52;4383101;80;43937;-76
2021/01/14 15:10:39;;;;;;;16.40;7.78;;;;;;;-0.09;100.00;98481.93;4322884;80;43975;-75
2021/01/14 15:16:42;;;;;;;14.75;7.50;;;;;;;-0.12;100.00;98490.22;4392028;80;43921;-76
2021/01/14 15:22:44;;;;;;;14.45;7.60;;;;;;;-0.15;100.00;98499.83;4411197;80;43929;-79
2021/01/14 15:28:46;;;;;;;13.62;6.35;;;;;;;-0.24;100.00;98508.80;4391154;80;43908;-77
2021/01/14 15:34:48;;;;;;;18.55;6.62;;;;;;;-0.27;100.00;98511.28;4376276;80;43941;-77
2021/01/14 15:40:51;;;;;;;12.80;5.78;;;;;;;-0.39;100.00;98527.20;4378262;80;43216;-77
2021/01/14 15:46:59;;;;;;;12.23;6.17;;;;;;;-0.19;100.00;98531.54;4380796;80;43250;-77
2021/01/14 15:53:01;;;;;;;15.50;6.70;;;;;;;-0.28;100.00;98537.37;4387503;80;43938;-79
2021/01/14 15:59:37;;;;;;;18.92;7.22;;;;;;;-0.16;100.00;98547.03;4391002;80;43989;-78
2021/01/14 16:05:40;;;;;;;17.17;7.65;;;;;;;-0.20;100.00;98558.48;4345173;81;43970;-79
2021/01/14 16:11:43;;;;;;;19.50;8.73;;;;;;;-0.26;100.00;98564.44;4340826;81;43920;-79
2021/01/14 16:17:45;;;;;;;20.88;9.60;;;;;;;-0.25;100.00;98568.73;4344624;80;44171;-78
2021/01/14 16:23:47;;;;;;;22.00;9.68;;;;;;;-0.39;100.00;98576.88;4350866;80;44443;-79
2021/01/14 16:29:49;;;;;;;30.05;11.68;;;;;;;-0.37;100.00;98584.64;4368780;81;43412;-78
2021/01/14 16:36:03;;;;;;;29.10;12.43;;;;;;;-0.49;100.00;98600.02;4347220;80;43450;-78
2021/01/14 16:42:08;;;;;;;28.42;12.40;;;;;;;-0.37;100.00;98602.61;4346947;80;43386;-78
2021/01/14 16:48:18;;;;;;;29.80;12.75;;;;;;;-0.36;100.00;98612.22;4350536;81;43382;-79
2021/01/14 16:54:24;;;;;;;29.45;12.33;;;;;;;-0.31;100.00;98615.66;4361022;80;43430;-80
2021/01/14 17:00:28;;;;;;;29.82;11.68;;;;;;;-0.33;100.00;98622.43;4373820;80;43401;-80
2021/01/14 17:06:35;;;;;;;34.20;13.17;;;;;;;-0.44;100.00;98633.37;4393698;79;28560;-78
2021/01/14 17:12:40;;;;;;;32.00;13.43;;;;;;;-0.54;100.00;98625.62;4390113;80;44091;-78
2021/01/14 17:18:43;;;;;;;27.32;11.88;;;;;;;-0.47;100.00;98633.20;4324109;81;28642;-80
2021/01/14 17:24:49;;;;;;;30.33;12.00;;;;;;;-0.54;100.00;98646.75;4419314;80;28682;-78
2021/01/14 17:30:53;;;;;;;31.20;13.88;;;;;;;-0.59;100.00;98643.29;4383219;80;44112;-78
2021/01/14 17:36:59;;;;;;;33.30;13.72;;;;;;;-0.70;100.00;98654.20;4410646;80;44092;-77
2021/01/14 17:43:07;;;;;;;31.07;13.32;;;;;;;-0.60;100.00;98646.92;4378177;80;43734;-78
2021/01/14 17:49:11;;;;;;;38.10;15.70;;;;;;;-0.62;100.00;98658.67;4392636;80;28551;-77
2021/01/14 17:55:15;;;;;;;32.60;13.88;;;;;;;-0.62;100.00;98658.67;4335593;80;28628;-78
2021/01/14 18:01:19;;;;;;;36.30;15.35;;;;;;;-0.59;100.00;98662.29;4333651;81;44577;-78
2021/01/14 18:07:22;;;;;;;33.50;13.85;;;;;;;-0.55;100.00;98671.52;4399343;80;44307;-78
2021/01/14 18:13:26;;;;;;;36.73;14.90;;;;;;;-0.59;100.00;98672.85;4421816;80;44489;-77
2021/01/14 18:19:28;;;;;;;36.30;15.32;;;;;;;-0.58;100.00;98666.06;4355116;80;44429;-79
2021/01/14 18:25:33;;;;;;;36.55;15.08;;;;;;;-0.58;100.00;98669.22;4360239;80;44540;-79
2021/01/14 18:31:38;;;;;;;38.05;15.85;;;;;;;-0.66;100.00;98673.19;4382580;80;28594;-79
2021/01/14 18:37:44;;;;;;;39.95;16.32;;;;;;;-0.69;100.00;98673.02;4375884;81;44448;-79
2021/01/14 18:43:49;;;;;;;34.43;13.60;;;;;;;-0.78;100.00;98672.69;4381925;80;28580;-80
2021/01/14 18:49:54;;;;;;;42.95;17.52;;;;;;;-0.81;100.00;98684.44;4345562;80;42890;-79
2021/01/14 18:55:58;;;;;;;41.63;16.70;;;;;;;-0.72;100.00;98685.23;4329929;80;44440;-82
2021/01/14 19:02:00;;;;;;;36.63;14.23;;;;;;;-0.76;100.00;98679.98;4339767;81;44475;-79
2021/01/14 19:08:04;;;;;;;35.90;14.87;;;;;;;-0.87;100.00;98696.96;4344608;81;44437;-78
2021/01/14 19:14:06;;;;;;;41.73;17.20;;;;;;;-0.99;100.00;98702.58;4289946;81;44453;-78
2021/01/14 19:20:10;;;;;;;43.38;17.62;;;;;;;-0.96;100.00;98695.31;4350406;81;43684;-79
2021/01/14 19:26:23;;;;;;;35.33;14.43;;;;;;;-0.95;100.00;98699.11;4325748;80;44427;-79
2021/01/14 19:32:26;;;;;;;48.02;18.40;;;;;;;-0.97;100.00;98693.19;4335553;80;43767;-78
2021/01/14 19:38:30;;;;;;;42.65;18.20;;;;;;;-0.93;100.00;98699.77;4339276;80;43245;-80
2021/01/14 19:44:34;;;;;;;46.73;18.70;;;;;;;-1.08;100.00;98704.06;4348912;80;43777;-81
2021/01/14 19:50:37;;;;;;;38.35;15.72;;;;;;;-0.92;100.00;98701.41;4322821;81;44448;-80
2021/01/14 19:56:41;;;;;;;47.48;18.70;;;;;;;-0.94;100.00;98707.36;4302925;80;43773;-79
2021/01/14 20:02:43;;;;;;;43.73;17.45;;;;;;;-0.92;100.00;98708.02;4338961;80;42866;-82
2021/01/14 20:08:47;;;;;;;43.25;17.57;;;;;;;-0.91;100.00;98717.58;4321603;82;43647;-83
2021/01/14 20:14:49;;;;;;;42.13;18.02;;;;;;;-0.87;100.00;98727.31;4342079;80;44491;-80
2021/01/14 20:21:23;;;;;;;44.50;18.05;;;;;;;-0.78;100.00;98735.57;4372954;79;86364;-78
2021/01/14 20:27:25;;;;;;;42.30;17.95;;;;;;;-0.81;100.00;98737.71;4268450;82;43262;-80
2021/01/14 20:33:28;;;;;;;42.93;17.55;;;;;;;-0.95;100.00;98733.42;4167252;84;42922;-80
2021/01/14 20:39:30;;;;;;;48.10;19.80;;;;;;;-0.92;100.00;98741.01;4269478;81;43769;-79
2021/01/14 20:45:37;;;;;;;40.03;16.17;;;;;;;-0.83;100.00;98742.34;4193847;85;28619;-79
2021/01/14 20:51:41;;;;;;;47.73;18.95;;;;;;;-0.86;100.00;98746.96;4237599;82;43800;-79
2021/01/14 20:57:45;;;;;;;42.43;18.85;;;;;;;-0.99;100.00;98754.52;4213552;84;42909;-78
2021/01/14 21:03:48;;;;;;;35.58;14.53;;;;;;;-1.08;100.00;98764.25;4191653;84;44478;-76
2021/01/14 21:09:51;;;;;;;28.73;12.47;;;;;;;-0.94;100.00;98764.11;4284343;81;43396;-79
2021/01/14 21:15:55;;;;;;;24.20;9.83;;;;;;;-1.00;100.00;98768.70;4289013;82;28632;-78
2021/01/14 21:21:59;;;;;;;19.48;8.60;;;;;;;-1.28;100.00;98790.10;4311407;81;43972;-77
2021/01/14 21:28:01;;;;;;;15.78;6.92;;;;;;;-1.36;100.00;98776.88;4270561;81;43946;-78
2021/01/14 21:34:07;;;;;;;19.40;9.00;;;;;;;-1.33;100.00;98768.16;4272749;81;43901;-78
2021/01/14 21:40:13;;;;;;;16.97;6.95;;;;;;;-1.59;100.00;98774.84;4290807;81;43979;-77
2021/01/14 21:46:15;;;;;;;;;;;;;;;-1.61;100.00;98773.66;4276036;81;28568;-78
2021/01/14 21:52:18;;;;;;;20.25;8.05;;;;;;;-1.59;100.00;98768.25;4278433;82;43938;-78
2021/01/14 21:58:20;;;;;;;20.52;8.15;;;;;;;-1.60;100.00;98775.31;4241842;83;43940;-78
2021/01/14 22:04:22;;;;;;;17.85;8.43;;;;;;;-1.44;100.00;98769.78;4292150;81;43901;-77
2021/01/14 22:10:25;;;;;;;20.25;8.73;;;;;;;-1.67;100.00;98772.16;4212416;82;43932;-78
2021/01/14 22:16:30;;;;;;;24.25;8.40;;;;;;;-1.59;100.00;98768.25;4279386;82;43954;-80
2021/01/14 22:22:33;;;;;;;17.30;8.33;;;;;;;-1.57;100.00;98784.72;4268274;81;43905;-78
2021/01/14 22:28:35;;;;;;;20.37;9.25;;;;;;;-1.42;100.00;98780.98;4276750;83;43919;-78
2021/01/14 22:34:38;;;;;;;18.87;8.43;;;;;;;-1.61;100.00;98795.27;4270813;83;43956;-79
2021/01/14 22:40:42;;;;;;;19.10;8.47;;;;;;;-1.48;100.00;98809.30;4240654;82;28563;-77
2021/01/14 22:46:50;;;;;;;19.73;9.25;;;;;;;-1.70;100.00;98812.36;4259362;81;28566;-78
2021/01/14 22:52:53;;;;;;;18.87;7.85;;;;;;;-1.79;100.00;98807.19;4236212;81;43956;-77
2021/01/14 22:58:58;;;;;;;15.10;7.00;;;;;;;-1.65;100.00;98798.70;4286381;82;43918;-79
2021/01/14 23:05:00;;;;;;;15.50;6.50;;;;;;;-1.64;100.00;98786.33;4280198;81;28628;-79
2021/01/14 23:11:03;;;;;;;20.50;8.75;;;;;;;-1.79;100.00;98784.78;4315010;81;43905;-78
2021/01/14 23:17:05;;;;;;;25.30;9.85;;;;;;;-1.61;100.00;98796.58;4284398;81;43124;-78
2021/01/14 23:23:07;;;;;;;21.10;9.25;;;;;;;-1.58;100.00;98804.17;4268751;83;43906;-78
2021/01/14 23:29:10;;;;;;;19.37;9.30;;;;;;;-1.68;100.00;98814.81;4287294;82;43930;-79
2021/01/14 23:35:13;;;;;;;16.48;8.00;;;;;;;-1.70;100.00;98816.31;4165275;85;43928;-79
2021/01/14 23:41:18;;;;;;;21.97;9.85;;;;;;;-1.69;100.00;98821.08;4225029;84;44456;-79
2021/01/14 23:47:20;;;;;;;23.67;9.63;;;;;;;-1.61;100.00;98825.59;4226475;84;43916;-80
2021/01/14 23:53:23;;;;;;;23.42;10.55;;;;;;;-1.70;100.00;98841.83;4133390;85;44501;-77
2021/01/14 23:59:25;;;;;;;27.07;11.12;;;;;;;-1.74;100.00;98847.91;4293206;81;43355;-78
